sensor_id;sensor_type;location;lat;lon;timestamp;P1;durP1;ratioP1;P2;durP2;ratioP2
56075;SDS011;41951;49.022;12.066;2023-01-19T00:02:21;15.57;;;8.10;;
56075;SDS011;41951;49.022;12.066;2023-01-19T00:04:47;15.18;;;8.10;;
56075;SDS011;41951;49.022;12.066;2023-01-19T00:07:13;12.98;;;7.05;;
56075;SDS011;41951;49.022;12.066;2023-01-19T00:09:39;14.98;;;7.03;;
56075;SDS011;41951;49.022;12.066;2023-01-19T00:12:04;12.60;;;7.65;;
56075;SDS011;41951;49.022;12.066;2023-01-19T00:14:30;13.45;;;7.15;;
56075;SDS011;41951;49.022;12.066;2023-01-19T00:16:56;16.58;;;6.45;;
56075;SDS011;41951;49.022;12.066;2023-01-19T00:19:21;15.98;;;7.05;;
56075;SDS011;41951;49.022;12.066;2023-01-19T00:21:47;12.65;;;6.63;;
56075;SDS011;41951;49.022;12.066;2023-01-19T00:24:13;9.20;;;5.50;;
56075;SDS011;41951;49.022;12.066;2023-01-19T00:26:39;11.52;;;5.72;;
56075;SDS011;41951;49.022;12.066;2023-01-19T00:29:06;13.18;;;6.38;;
56075;SDS011;41951;49.022;12.066;2023-01-19T00:31:34;11.88;;;6.07;;
56075;SDS011;41951;49.022;12.066;2023-01-19T00:33:59;14.57;;;6.50;;
56075;SDS011;41951;49.022;12.066;2023-01-19T00:36:25;11.85;;;6.22;;
56075;SDS011;41951;49.022;12.066;2023-01-19T00:38:50;10.50;;;5.90;;
56075;SDS011;41951;49.022;12.066;2023-01-19T00:41:16;11.70;;;7.03;;
56075;SDS011;41951;49.022;12.066;2023-01-19T00:43:42;14.45;;;6.90;;
56075;SDS011;41951;49.022;12.066;2023-01-19T00:46:08;12.73;;;6.32;;
56075;SDS011;41951;49.022;12.066;2023-01-19T00:48:33;11.43;;;6.30;;
56075;SDS011;41951;49.022;12.066;2023-01-19T00:50:59;15.10;;;7.07;;
56075;SDS011;41951;49.022;12.066;2023-01-19T00:53:25;11.27;;;6.63;;
56075;SDS011;41951;49.022;12.066;2023-01-19T00:55:52;14.27;;;6.72;;
56075;SDS011;41951;49.022;12.066;2023-01-19T00:58:18;14.05;;;6.97;;
56075;SDS011;41951;49.022;12.066;2023-01-19T01:00:44;13.18;;;6.72;;
56075;SDS011;41951;49.022;12.066;2023-01-19T01:03:09;15.55;;;7.57;;
56075;SDS011;41951;49.022;12.066;2023-01-19T01:05:35;13.20;;;6.25;;
56075;SDS011;41951;49.022;12.066;2023-01-19T01:08:05;12.18;;;6.20;;
56075;SDS011;41951;49.022;12.066;2023-01-19T01:10:30;16.45;;;6.10;;
56075;SDS011;41951;49.022;12.066;2023-01-19T01:12:56;11.95;;;6.47;;
56075;SDS011;41951;49.022;12.066;2023-01-19T01:15:21;11.70;;;6.10;;
56075;SDS011;41951;49.022;12.066;2023-01-19T01:17:47;16.92;;;7.68;;
56075;SDS011;41951;49.022;12.066;2023-01-19T01:22:40;12.35;;;7.05;;
56075;SDS011;41951;49.022;12.066;2023-01-19T01:25:09;13.18;;;6.20;;
56075;SDS011;41951;49.022;12.066;2023-01-19T01:27:39;17.15;;;8.02;;
56075;SDS011;41951;49.022;12.066;2023-01-19T01:30:05;13.48;;;7.00;;
56075;SDS011;41951;49.022;12.066;2023-01-19T01:32:31;14.27;;;6.57;;
56075;SDS011;41951;49.022;12.066;2023-01-19T01:34:57;12.23;;;6.90;;
56075;SDS011;41951;49.022;12.066;2023-01-19T01:37:22;14.30;;;6.70;;
56075;SDS011;41951;49.022;12.066;2023-01-19T01:39:48;13.15;;;7.50;;
56075;SDS011;41951;49.022;12.066;2023-01-19T01:42:15;13.88;;;7.15;;
56075;SDS011;41951;49.022;12.066;2023-01-19T01:47:25;12.05;;;6.53;;
56075;SDS011;41951;49.022;12.066;2023-01-19T01:52:25;13.38;;;6.53;;
56075;SDS011;41951;49.022;12.066;2023-01-19T01:54:53;15.77;;;7.05;;
56075;SDS011;41951;49.022;12.066;2023-01-19T01:57:19;15.48;;;6.70;;
56075;SDS011;41951;49.022;12.066;2023-01-19T01:59:45;15.55;;;8.15;;
56075;SDS011;41951;49.022;12.066;2023-01-19T02:02:23;15.05;;;7.25;;
56075;SDS011;41951;49.022;12.066;2023-01-19T02:05:12;16.33;;;7.35;;
56075;SDS011;41951;49.022;12.066;2023-01-19T02:08:10;12.55;;;6.88;;
56075;SDS011;41951;49.022;12.066;2023-01-19T02:11:09;13.13;;;6.90;;
56075;SDS011;41951;49.022;12.066;2023-01-19T02:13:54;14.77;;;6.70;;
56075;SDS011;41951;49.022;12.066;2023-01-19T02:16:19;15.07;;;7.28;;
56075;SDS011;41951;49.022;12.066;2023-01-19T02:18:45;14.98;;;7.93;;
56075;SDS011;41951;49.022;12.066;2023-01-19T02:21:12;14.00;;;7.05;;
56075;SDS011;41951;49.022;12.066;2023-01-19T02:23:45;14.85;;;7.25;;
56075;SDS011;41951;49.022;12.066;2023-01-19T02:26:29;12.82;;;7.05;;
56075;SDS011;41951;49.022;12.066;2023-01-19T02:29:04;15.30;;;7.05;;
56075;SDS011;41951;49.022;12.066;2023-01-19T02:31:32;12.52;;;7.30;;
56075;SDS011;41951;49.022;12.066;2023-01-19T02:34:00;16.13;;;7.35;;
56075;SDS011;41951;49.022;12.066;2023-01-19T02:36:47;13.68;;;7.72;;
56075;SDS011;41951;49.022;12.066;2023-01-19T02:39:24;17.75;;;7.15;;
56075;SDS011;41951;49.022;12.066;2023-01-19T02:41:54;15.45;;;7.65;;
56075;SDS011;41951;49.022;12.066;2023-01-19T02:44:25;13.15;;;7.32;;
56075;SDS011;41951;49.022;12.066;2023-01-19T02:46:53;15.27;;;8.30;;
56075;SDS011;41951;49.022;12.066;2023-01-19T02:49:19;18.38;;;8.25;;
56075;SDS011;41951;49.022;12.066;2023-01-19T02:51:44;14.30;;;7.97;;
56075;SDS011;41951;49.022;12.066;2023-01-19T02:54:27;20.00;;;8.20;;
56075;SDS011;41951;49.022;12.066;2023-01-19T03:08:37;15.63;;;7.80;;
56075;SDS011;41951;49.022;12.066;2023-01-19T03:11:11;13.75;;;7.57;;
56075;SDS011;41951;49.022;12.066;2023-01-19T03:16:35;16.63;;;7.85;;
56075;SDS011;41951;49.022;12.066;2023-01-19T03:19:28;13.18;;;7.07;;
56075;SDS011;41951;49.022;12.066;2023-01-19T03:22:02;15.05;;;8.32;;
56075;SDS011;41951;49.022;12.066;2023-01-19T03:24:32;19.30;;;7.45;;
56075;SDS011;41951;49.022;12.066;2023-01-19T03:27:05;13.50;;;6.70;;
56075;SDS011;41951;49.022;12.066;2023-01-19T03:30:26;15.95;;;7.65;;
56075;SDS011;41951;49.022;12.066;2023-01-19T03:32:58;13.10;;;7.30;;
56075;SDS011;41951;49.022;12.066;2023-01-19T03:35:29;15.52;;;7.70;;
56075;SDS011;41951;49.022;12.066;2023-01-19T03:37:57;17.55;;;8.13;;
56075;SDS011;41951;49.022;12.066;2023-01-19T03:40:28;16.45;;;8.48;;
56075;SDS011;41951;49.022;12.066;2023-01-19T03:42:56;17.48;;;7.25;;
56075;SDS011;41951;49.022;12.066;2023-01-19T03:45:22;14.27;;;7.55;;
56075;SDS011;41951;49.022;12.066;2023-01-19T03:47:48;14.85;;;7.43;;
56075;SDS011;41951;49.022;12.066;2023-01-19T03:50:17;14.68;;;8.52;;
56075;SDS011;41951;49.022;12.066;2023-01-19T03:55:45;16.05;;;8.73;;
56075;SDS011;41951;49.022;12.066;2023-01-19T03:58:12;12.77;;;7.53;;
56075;SDS011;41951;49.022;12.066;2023-01-19T04:00:38;13.85;;;7.25;;
56075;SDS011;41951;49.022;12.066;2023-01-19T04:03:04;16.48;;;7.40;;
56075;SDS011;41951;49.022;12.066;2023-01-19T04:05:34;18.02;;;7.90;;
56075;SDS011;41951;49.022;12.066;2023-01-19T04:08:01;12.77;;;6.75;;
56075;SDS011;41951;49.022;12.066;2023-01-19T04:10:27;15.40;;;9.02;;
56075;SDS011;41951;49.022;12.066;2023-01-19T04:12:56;14.55;;;7.60;;
56075;SDS011;41951;49.022;12.066;2023-01-19T04:15:22;16.73;;;7.97;;
56075;SDS011;41951;49.022;12.066;2023-01-19T04:17:48;17.38;;;8.48;;
56075;SDS011;41951;49.022;12.066;2023-01-19T04:20:14;13.55;;;7.18;;
56075;SDS011;41951;49.022;12.066;2023-01-19T04:22:40;15.68;;;7.30;;
56075;SDS011;41951;49.022;12.066;2023-01-19T04:25:06;14.90;;;7.78;;
56075;SDS011;41951;49.022;12.066;2023-01-19T04:27:33;11.80;;;6.68;;
56075;SDS011;41951;49.022;12.066;2023-01-19T04:29:59;13.27;;;7.43;;
56075;SDS011;41951;49.022;12.066;2023-01-19T04:32:24;14.63;;;8.35;;
56075;SDS011;41951;49.022;12.066;2023-01-19T04:34:50;13.00;;;7.80;;
56075;SDS011;41951;49.022;12.066;2023-01-19T04:37:16;16.15;;;8.02;;
56075;SDS011;41951;49.022;12.066;2023-01-19T04:39:41;15.13;;;7.07;;
56075;SDS011;41951;49.022;12.066;2023-01-19T04:42:07;13.90;;;7.28;;
56075;SDS011;41951;49.022;12.066;2023-01-19T04:44:33;13.95;;;6.78;;
56075;SDS011;41951;49.022;12.066;2023-01-19T04:46:58;15.45;;;8.20;;
56075;SDS011;41951;49.022;12.066;2023-01-19T04:49:24;12.77;;;7.22;;
56075;SDS011;41951;49.022;12.066;2023-01-19T04:51:51;15.10;;;7.47;;
56075;SDS011;41951;49.022;12.066;2023-01-19T04:54:17;14.48;;;7.68;;
56075;SDS011;41951;49.022;12.066;2023-01-19T04:56:43;13.77;;;7.72;;
56075;SDS011;41951;49.022;12.066;2023-01-19T04:59:09;12.07;;;7.10;;
56075;SDS011;41951;49.022;12.066;2023-01-19T05:01:34;12.10;;;7.93;;
56075;SDS011;41951;49.022;12.066;2023-01-19T05:04:00;14.38;;;8.23;;
56075;SDS011;41951;49.022;12.066;2023-01-19T05:06:29;22.63;;;11.27;;
56075;SDS011;41951;49.022;12.066;2023-01-19T05:08:54;35.45;;;16.10;;
56075;SDS011;41951;49.022;12.066;2023-01-19T05:11:20;14.15;;;7.47;;
56075;SDS011;41951;49.022;12.066;2023-01-19T05:13:45;18.15;;;8.00;;
56075;SDS011;41951;49.022;12.066;2023-01-19T05:16:11;15.32;;;7.95;;
56075;SDS011;41951;49.022;12.066;2023-01-19T05:18:37;12.50;;;7.05;;
56075;SDS011;41951;49.022;12.066;2023-01-19T05:21:03;17.88;;;7.47;;
56075;SDS011;41951;49.022;12.066;2023-01-19T05:23:29;13.20;;;7.10;;
56075;SDS011;41951;49.022;12.066;2023-01-19T05:25:56;14.60;;;7.97;;
56075;SDS011;41951;49.022;12.066;2023-01-19T05:28:26;15.52;;;8.60;;
56075;SDS011;41951;49.022;12.066;2023-01-19T05:30:56;15.63;;;8.40;;
56075;SDS011;41951;49.022;12.066;2023-01-19T05:33:22;14.90;;;7.88;;
56075;SDS011;41951;49.022;12.066;2023-01-19T05:35:48;15.27;;;8.18;;
56075;SDS011;41951;49.022;12.066;2023-01-19T05:38:15;16.23;;;7.90;;
56075;SDS011;41951;49.022;12.066;2023-01-19T05:40:40;16.98;;;7.32;;
56075;SDS011;41951;49.022;12.066;2023-01-19T05:43:06;15.00;;;8.30;;
56075;SDS011;41951;49.022;12.066;2023-01-19T05:45:32;14.75;;;7.97;;
56075;SDS011;41951;49.022;12.066;2023-01-19T05:47:58;15.48;;;8.23;;
56075;SDS011;41951;49.022;12.066;2023-01-19T05:50:23;13.80;;;7.75;;
56075;SDS011;41951;49.022;12.066;2023-01-19T05:52:49;19.33;;;8.85;;
56075;SDS011;41951;49.022;12.066;2023-01-19T05:55:17;18.20;;;8.32;;
56075;SDS011;41951;49.022;12.066;2023-01-19T05:57:43;15.05;;;8.10;;
56075;SDS011;41951;49.022;12.066;2023-01-19T06:00:09;18.23;;;8.63;;
56075;SDS011;41951;49.022;12.066;2023-01-19T06:02:35;15.93;;;7.88;;
56075;SDS011;41951;49.022;12.066;2023-01-19T06:05:00;15.05;;;8.50;;
56075;SDS011;41951;49.022;12.066;2023-01-19T06:07:26;18.10;;;8.02;;
56075;SDS011;41951;49.022;12.066;2023-01-19T06:09:51;18.35;;;8.95;;
56075;SDS011;41951;49.022;12.066;2023-01-19T06:12:17;20.10;;;9.05;;
56075;SDS011;41951;49.022;12.066;2023-01-19T06:14:42;15.82;;;8.35;;
56075;SDS011;41951;49.022;12.066;2023-01-19T06:17:08;16.58;;;8.73;;
56075;SDS011;41951;49.022;12.066;2023-01-19T06:19:34;15.65;;;8.18;;
56075;SDS011;41951;49.022;12.066;2023-01-19T06:21:59;16.98;;;8.68;;
56075;SDS011;41951;49.022;12.066;2023-01-19T06:24:25;15.48;;;7.97;;
56075;SDS011;41951;49.022;12.066;2023-01-19T06:26:51;14.30;;;8.63;;
56075;SDS011;41951;49.022;12.066;2023-01-19T06:29:17;27.20;;;9.45;;
56075;SDS011;41951;49.022;12.066;2023-01-19T06:31:43;22.02;;;9.32;;
56075;SDS011;41951;49.022;12.066;2023-01-19T06:34:09;14.35;;;8.73;;
56075;SDS011;41951;49.022;12.066;2023-01-19T06:36:34;14.32;;;8.55;;
56075;SDS011;41951;49.022;12.066;2023-01-19T06:39:00;17.02;;;8.27;;
56075;SDS011;41951;49.022;12.066;2023-01-19T06:41:30;14.18;;;7.80;;
56075;SDS011;41951;49.022;12.066;2023-01-19T06:43:57;17.27;;;7.65;;
56075;SDS011;41951;49.022;12.066;2023-01-19T06:46:22;13.15;;;7.55;;
56075;SDS011;41951;49.022;12.066;2023-01-19T06:48:48;19.20;;;9.98;;
56075;SDS011;41951;49.022;12.066;2023-01-19T06:51:14;13.73;;;7.07;;
56075;SDS011;41951;49.022;12.066;2023-01-19T06:53:39;12.38;;;7.45;;
56075;SDS011;41951;49.022;12.066;2023-01-19T06:56:05;14.90;;;7.85;;
56075;SDS011;41951;49.022;12.066;2023-01-19T06:58:32;15.20;;;8.55;;
56075;SDS011;41951;49.022;12.066;2023-01-19T07:01:05;15.32;;;7.97;;
56075;SDS011;41951;49.022;12.066;2023-01-19T07:03:31;15.95;;;8.15;;
56075;SDS011;41951;49.022;12.066;2023-01-19T07:05:58;17.70;;;8.45;;
56075;SDS011;41951;49.022;12.066;2023-01-19T07:08:26;17.05;;;8.40;;
56075;SDS011;41951;49.022;12.066;2023-01-19T07:10:58;17.90;;;8.60;;
56075;SDS011;41951;49.022;12.066;2023-01-19T07:13:25;17.48;;;8.05;;
56075;SDS011;41951;49.022;12.066;2023-01-19T07:15:50;15.10;;;7.72;;
56075;SDS011;41951;49.022;12.066;2023-01-19T07:18:16;15.63;;;7.80;;
56075;SDS011;41951;49.022;12.066;2023-01-19T07:20:41;16.48;;;8.30;;
56075;SDS011;41951;49.022;12.066;2023-01-19T07:23:09;13.82;;;8.10;;
56075;SDS011;41951;49.022;12.066;2023-01-19T07:25:35;16.05;;;8.48;;
56075;SDS011;41951;49.022;12.066;2023-01-19T07:28:01;14.93;;;8.13;;
56075;SDS011;41951;49.022;12.066;2023-01-19T07:30:27;15.85;;;7.97;;
56075;SDS011;41951;49.022;12.066;2023-01-19T07:32:56;19.98;;;9.13;;
56075;SDS011;41951;49.022;12.066;2023-01-19T07:35:22;15.10;;;8.73;;
56075;SDS011;41951;49.022;12.066;2023-01-19T07:37:49;16.95;;;8.45;;
56075;SDS011;41951;49.022;12.066;2023-01-19T07:40:14;19.67;;;9.25;;
56075;SDS011;41951;49.022;12.066;2023-01-19T07:42:44;14.68;;;8.50;;
56075;SDS011;41951;49.022;12.066;2023-01-19T07:45:17;16.42;;;8.45;;
56075;SDS011;41951;49.022;12.066;2023-01-19T07:47:44;15.48;;;9.05;;
56075;SDS011;41951;49.022;12.066;2023-01-19T07:50:12;17.23;;;8.52;;
56075;SDS011;41951;49.022;12.066;2023-01-19T07:52:39;14.45;;;8.15;;
56075;SDS011;41951;49.022;12.066;2023-01-19T07:55:05;13.45;;;7.35;;
56075;SDS011;41951;49.022;12.066;2023-01-19T07:57:32;13.07;;;7.82;;
56075;SDS011;41951;49.022;12.066;2023-01-19T07:59:58;16.08;;;8.15;;
56075;SDS011;41951;49.022;12.066;2023-01-19T08:02:23;17.30;;;9.05;;
56075;SDS011;41951;49.022;12.066;2023-01-19T08:04:49;14.55;;;7.80;;
56075;SDS011;41951;49.022;12.066;2023-01-19T08:07:15;13.23;;;7.30;;
56075;SDS011;41951;49.022;12.066;2023-01-19T08:09:41;19.98;;;8.85;;
56075;SDS011;41951;49.022;12.066;2023-01-19T08:12:07;13.88;;;7.75;;
56075;SDS011;41951;49.022;12.066;2023-01-19T08:14:32;13.27;;;8.05;;
56075;SDS011;41951;49.022;12.066;2023-01-19T08:17:01;18.08;;;9.13;;
56075;SDS011;41951;49.022;12.066;2023-01-19T08:19:27;14.98;;;8.05;;
56075;SDS011;41951;49.022;12.066;2023-01-19T08:21:52;16.08;;;8.48;;
56075;SDS011;41951;49.022;12.066;2023-01-19T08:24:19;18.70;;;7.90;;
56075;SDS011;41951;49.022;12.066;2023-01-19T08:26:46;17.65;;;7.88;;
56075;SDS011;41951;49.022;12.066;2023-01-19T08:29:13;15.77;;;8.27;;
56075;SDS011;41951;49.022;12.066;2023-01-19T08:31:39;18.30;;;8.13;;
56075;SDS011;41951;49.022;12.066;2023-01-19T08:34:05;17.10;;;8.57;;
56075;SDS011;41951;49.022;12.066;2023-01-19T08:36:32;20.95;;;10.13;;
56075;SDS011;41951;49.022;12.066;2023-01-19T08:38:58;15.77;;;9.30;;
56075;SDS011;41951;49.022;12.066;2023-01-19T08:41:23;15.02;;;7.78;;
56075;SDS011;41951;49.022;12.066;2023-01-19T08:43:49;14.85;;;8.13;;
56075;SDS011;41951;49.022;12.066;2023-01-19T08:46:15;18.92;;;7.65;;
56075;SDS011;41951;49.022;12.066;2023-01-19T08:48:41;13.27;;;7.40;;
56075;SDS011;41951;49.022;12.066;2023-01-19T08:51:09;13.82;;;7.55;;
56075;SDS011;41951;49.022;12.066;2023-01-19T08:53:36;20.02;;;7.72;;
56075;SDS011;41951;49.022;12.066;2023-01-19T08:56:02;15.35;;;7.18;;
56075;SDS011;41951;49.022;12.066;2023-01-19T08:58:28;12.65;;;6.80;;
56075;SDS011;41951;49.022;12.066;2023-01-19T09:00:54;11.38;;;6.93;;
56075;SDS011;41951;49.022;12.066;2023-01-19T09:03:20;11.35;;;6.75;;
56075;SDS011;41951;49.022;12.066;2023-01-19T09:05:46;14.32;;;7.40;;
56075;SDS011;41951;49.022;12.066;2023-01-19T09:08:12;12.52;;;6.43;;
56075;SDS011;41951;49.022;12.066;2023-01-19T09:10:42;11.07;;;6.60;;
56075;SDS011;41951;49.022;12.066;2023-01-19T09:13:11;13.20;;;6.95;;
56075;SDS011;41951;49.022;12.066;2023-01-19T09:15:37;13.00;;;7.38;;
56075;SDS011;41951;49.022;12.066;2023-01-19T09:18:04;12.13;;;6.43;;
56075;SDS011;41951;49.022;12.066;2023-01-19T09:20:31;12.65;;;6.32;;
56075;SDS011;41951;49.022;12.066;2023-01-19T09:22:58;11.07;;;6.30;;
56075;SDS011;41951;49.022;12.066;2023-01-19T09:25:24;10.45;;;6.07;;
56075;SDS011;41951;49.022;12.066;2023-01-19T09:27:50;11.15;;;5.55;;
56075;SDS011;41951;49.022;12.066;2023-01-19T09:30:17;13.13;;;6.05;;
56075;SDS011;41951;49.022;12.066;2023-01-19T09:32:43;10.98;;;5.75;;
56075;SDS011;41951;49.022;12.066;2023-01-19T09:35:09;10.18;;;5.78;;
56075;SDS011;41951;49.022;12.066;2023-01-19T09:37:34;11.88;;;6.10;;
56075;SDS011;41951;49.022;12.066;2023-01-19T09:40:00;9.48;;;5.57;;
56075;SDS011;41951;49.022;12.066;2023-01-19T09:44:51;12.23;;;5.82;;
56075;SDS011;41951;49.022;12.066;2023-01-19T09:47:20;10.82;;;5.72;;
56075;SDS011;41951;49.022;12.066;2023-01-19T09:49:51;13.63;;;5.43;;
56075;SDS011;41951;49.022;12.066;2023-01-19T09:52:22;9.90;;;6.00;;
56075;SDS011;41951;49.022;12.066;2023-01-19T09:54:52;11.27;;;5.72;;
56075;SDS011;41951;49.022;12.066;2023-01-19T09:57:20;9.55;;;5.05;;
56075;SDS011;41951;49.022;12.066;2023-01-19T09:59:47;10.80;;;5.22;;
56075;SDS011;41951;49.022;12.066;2023-01-19T10:07:24;7.38;;;4.40;;
56075;SDS011;41951;49.022;12.066;2023-01-19T10:15:14;12.48;;;5.38;;
56075;SDS011;41951;49.022;12.066;2023-01-19T10:20:35;11.65;;;6.88;;
56075;SDS011;41951;49.022;12.066;2023-01-19T10:23:04;10.85;;;5.93;;
56075;SDS011;41951;49.022;12.066;2023-01-19T10:25:45;10.38;;;6.57;;
56075;SDS011;41951;49.022;12.066;2023-01-19T10:28:12;15.07;;;6.32;;
56075;SDS011;41951;49.022;12.066;2023-01-19T10:30:38;10.27;;;6.45;;
56075;SDS011;41951;49.022;12.066;2023-01-19T10:33:06;10.55;;;5.60;;
56075;SDS011;41951;49.022;12.066;2023-01-19T10:35:35;11.73;;;5.82;;
56075;SDS011;41951;49.022;12.066;2023-01-19T10:38:01;12.05;;;5.55;;
56075;SDS011;41951;49.022;12.066;2023-01-19T10:40:38;12.05;;;5.40;;
56075;SDS011;41951;49.022;12.066;2023-01-19T10:46:04;12.13;;;6.28;;
56075;SDS011;41951;49.022;12.066;2023-01-19T10:48:40;13.90;;;5.63;;
56075;SDS011;41951;49.022;12.066;2023-01-19T10:51:06;9.75;;;5.68;;
56075;SDS011;41951;49.022;12.066;2023-01-19T10:53:33;10.90;;;5.93;;
56075;SDS011;41951;49.022;12.066;2023-01-19T10:59:02;10.88;;;5.95;;
56075;SDS011;41951;49.022;12.066;2023-01-19T11:01:29;12.88;;;5.88;;
56075;SDS011;41951;49.022;12.066;2023-01-19T11:03:59;11.73;;;6.07;;
56075;SDS011;41951;49.022;12.066;2023-01-19T11:06:30;13.77;;;5.63;;
56075;SDS011;41951;49.022;12.066;2023-01-19T11:09:19;12.27;;;4.80;;
56075;SDS011;41951;49.022;12.066;2023-01-19T11:11:46;11.43;;;5.22;;
56075;SDS011;41951;49.022;12.066;2023-01-19T11:14:17;8.25;;;5.10;;
56075;SDS011;41951;49.022;12.066;2023-01-19T11:16:46;9.13;;;5.25;;
56075;SDS011;41951;49.022;12.066;2023-01-19T11:19:16;8.95;;;5.30;;
56075;SDS011;41951;49.022;12.066;2023-01-19T11:21:49;13.23;;;5.55;;
56075;SDS011;41951;49.022;12.066;2023-01-19T11:24:15;13.02;;;5.40;;
56075;SDS011;41951;49.022;12.066;2023-01-19T11:26:45;13.13;;;5.43;;
56075;SDS011;41951;49.022;12.066;2023-01-19T11:29:17;8.95;;;5.18;;
56075;SDS011;41951;49.022;12.066;2023-01-19T11:31:50;9.25;;;4.78;;
56075;SDS011;41951;49.022;12.066;2023-01-19T11:34:25;9.45;;;5.00;;
56075;SDS011;41951;49.022;12.066;2023-01-19T11:36:57;9.32;;;5.40;;
56075;SDS011;41951;49.022;12.066;2023-01-19T11:39:25;9.70;;;5.20;;
56075;SDS011;41951;49.022;12.066;2023-01-19T11:41:53;10.70;;;4.90;;
56075;SDS011;41951;49.022;12.066;2023-01-19T11:44:23;11.55;;;5.82;;
56075;SDS011;41951;49.022;12.066;2023-01-19T11:47:10;14.57;;;7.68;;
56075;SDS011;41951;49.022;12.066;2023-01-19T11:49:50;12.25;;;6.07;;
56075;SDS011;41951;49.022;12.066;2023-01-19T11:52:26;12.85;;;6.03;;
56075;SDS011;41951;49.022;12.066;2023-01-19T11:55:40;13.32;;;5.28;;
56075;SDS011;41951;49.022;12.066;2023-01-19T11:58:13;8.35;;;4.80;;
56075;SDS011;41951;49.022;12.066;2023-01-19T12:00:45;9.43;;;4.82;;
56075;SDS011;41951;49.022;12.066;2023-01-19T12:06:04;9.43;;;5.57;;
56075;SDS011;41951;49.022;12.066;2023-01-19T12:08:38;9.13;;;4.90;;
56075;SDS011;41951;49.022;12.066;2023-01-19T12:11:07;10.57;;;5.60;;
56075;SDS011;41951;49.022;12.066;2023-01-19T12:13:38;10.02;;;5.35;;
56075;SDS011;41951;49.022;12.066;2023-01-19T12:16:10;10.63;;;4.43;;
56075;SDS011;41951;49.022;12.066;2023-01-19T12:21:17;10.63;;;5.63;;
56075;SDS011;41951;49.022;12.066;2023-01-19T12:23:50;9.52;;;4.78;;
56075;SDS011;41951;49.022;12.066;2023-01-19T12:26:35;6.93;;;3.65;;
56075;SDS011;41951;49.022;12.066;2023-01-19T12:29:04;9.00;;;4.10;;
56075;SDS011;41951;49.022;12.066;2023-01-19T12:31:37;6.80;;;3.53;;
56075;SDS011;41951;49.022;12.066;2023-01-19T12:37:03;10.02;;;4.57;;
56075;SDS011;41951;49.022;12.066;2023-01-19T12:39:31;13.18;;;4.80;;
56075;SDS011;41951;49.022;12.066;2023-01-19T12:42:05;8.05;;;4.25;;
56075;SDS011;41951;49.022;12.066;2023-01-19T12:44:39;8.75;;;4.53;;
56075;SDS011;41951;49.022;12.066;2023-01-19T12:55:13;7.22;;;3.75;;
56075;SDS011;41951;49.022;12.066;2023-01-19T13:03:40;9.65;;;4.25;;
56075;SDS011;41951;49.022;12.066;2023-01-19T13:05:54;7.25;;;4.05;;
56075;SDS011;41951;49.022;12.066;2023-01-19T13:08:21;8.52;;;4.45;;
56075;SDS011;41951;49.022;12.066;2023-01-19T13:18:49;9.57;;;4.25;;
56075;SDS011;41951;49.022;12.066;2023-01-19T13:21:32;8.73;;;3.80;;
56075;SDS011;41951;49.022;12.066;2023-01-19T13:26:37;9.13;;;3.97;;
56075;SDS011;41951;49.022;12.066;2023-01-19T13:29:35;7.18;;;3.17;;
56075;SDS011;41951;49.022;12.066;2023-01-19T13:32:05;4.95;;;2.90;;
56075;SDS011;41951;49.022;12.066;2023-01-19T13:35:01;7.88;;;3.30;;
56075;SDS011;41951;49.022;12.066;2023-01-19T13:37:36;4.95;;;2.58;;
56075;SDS011;41951;49.022;12.066;2023-01-19T13:40:04;5.40;;;2.90;;
56075;SDS011;41951;49.022;12.066;2023-01-19T13:42:36;6.40;;;3.22;;
56075;SDS011;41951;49.022;12.066;2023-01-19T13:45:37;7.40;;;3.63;;
56075;SDS011;41951;49.022;12.066;2023-01-19T13:48:03;5.53;;;2.83;;
56075;SDS011;41951;49.022;12.066;2023-01-19T13:50:33;7.97;;;3.20;;
56075;SDS011;41951;49.022;12.066;2023-01-19T13:53:01;8.23;;;3.08;;
56075;SDS011;41951;49.022;12.066;2023-01-19T13:55:29;6.95;;;3.05;;
56075;SDS011;41951;49.022;12.066;2023-01-19T13:57:55;6.68;;;2.40;;
56075;SDS011;41951;49.022;12.066;2023-01-19T14:00:22;4.97;;;2.40;;
56075;SDS011;41951;49.022;12.066;2023-01-19T14:02:51;5.10;;;2.58;;
56075;SDS011;41951;49.022;12.066;2023-01-19T14:08:00;7.57;;;2.08;;
56075;SDS011;41951;49.022;12.066;2023-01-19T14:10:32;6.03;;;2.55;;
56075;SDS011;41951;49.022;12.066;2023-01-19T14:13:10;7.22;;;2.60;;
56075;SDS011;41951;49.022;12.066;2023-01-19T14:15:40;5.05;;;2.88;;
56075;SDS011;41951;49.022;12.066;2023-01-19T14:18:10;10.55;;;6.18;;
56075;SDS011;41951;49.022;12.066;2023-01-19T14:20:54;9.63;;;5.32;;
56075;SDS011;41951;49.022;12.066;2023-01-19T14:23:40;11.35;;;5.60;;
56075;SDS011;41951;49.022;12.066;2023-01-19T14:29:14;10.52;;;5.95;;
56075;SDS011;41951;49.022;12.066;2023-01-19T14:34:27;14.55;;;6.25;;
56075;SDS011;41951;49.022;12.066;2023-01-19T14:36:59;14.23;;;5.47;;
56075;SDS011;41951;49.022;12.066;2023-01-19T14:39:27;11.10;;;5.88;;
56075;SDS011;41951;49.022;12.066;2023-01-19T14:41:56;11.95;;;6.20;;
56075;SDS011;41951;49.022;12.066;2023-01-19T14:44:28;11.25;;;6.43;;
56075;SDS011;41951;49.022;12.066;2023-01-19T14:47:00;11.20;;;6.30;;
56075;SDS011;41951;49.022;12.066;2023-01-19T14:52:03;11.73;;;5.88;;
56075;SDS011;41951;49.022;12.066;2023-01-19T14:54:36;10.05;;;6.05;;
56075;SDS011;41951;49.022;12.066;2023-01-19T14:57:04;12.50;;;5.70;;
56075;SDS011;41951;49.022;12.066;2023-01-19T14:59:37;10.98;;;5.40;;
56075;SDS011;41951;49.022;12.066;2023-01-19T15:02:02;10.13;;;5.65;;
56075;SDS011;41951;49.022;12.066;2023-01-19T15:04:28;12.05;;;6.05;;
56075;SDS011;41951;49.022;12.066;2023-01-19T15:06:54;15.15;;;6.63;;
56075;SDS011;41951;49.022;12.066;2023-01-19T15:09:20;14.02;;;5.72;;
56075;SDS011;41951;49.022;12.066;2023-01-19T15:11:46;11.57;;;6.13;;
56075;SDS011;41951;49.022;12.066;2023-01-19T15:14:13;17.60;;;8.15;;
56075;SDS011;41951;49.022;12.066;2023-01-19T15:16:41;12.88;;;6.10;;
56075;SDS011;41951;49.022;12.066;2023-01-19T15:19:13;11.18;;;5.30;;
56075;SDS011;41951;49.022;12.066;2023-01-19T15:21:41;11.25;;;5.72;;
56075;SDS011;41951;49.022;12.066;2023-01-19T15:24:10;10.52;;;5.57;;
56075;SDS011;41951;49.022;12.066;2023-01-19T15:26:37;8.20;;;4.70;;
56075;SDS011;41951;49.022;12.066;2023-01-19T15:29:21;6.72;;;3.50;;
56075;SDS011;41951;49.022;12.066;2023-01-19T15:31:49;8.57;;;3.92;;
56075;SDS011;41951;49.022;12.066;2023-01-19T15:34:14;9.55;;;4.28;;
56075;SDS011;41951;49.022;12.066;2023-01-19T15:36:40;8.02;;;3.70;;
56075;SDS011;41951;49.022;12.066;2023-01-19T15:39:06;5.68;;;3.05;;
56075;SDS011;41951;49.022;12.066;2023-01-19T15:41:33;7.90;;;2.60;;
56075;SDS011;41951;49.022;12.066;2023-01-19T15:43:59;6.25;;;2.35;;
56075;SDS011;41951;49.022;12.066;2023-01-19T15:46:25;3.60;;;1.70;;
56075;SDS011;41951;49.022;12.066;2023-01-19T15:48:51;5.70;;;2.50;;
56075;SDS011;41951;49.022;12.066;2023-01-19T15:51:19;5.28;;;2.33;;
56075;SDS011;41951;49.022;12.066;2023-01-19T15:53:47;7.78;;;3.17;;
56075;SDS011;41951;49.022;12.066;2023-01-19T15:56:46;12.32;;;4.80;;
56075;SDS011;41951;49.022;12.066;2023-01-19T15:59:06;6.80;;;3.15;;
56075;SDS011;41951;49.022;12.066;2023-01-19T16:01:32;5.22;;;2.72;;
56075;SDS011;41951;49.022;12.066;2023-01-19T16:03:59;6.18;;;2.53;;
56075;SDS011;41951;49.022;12.066;2023-01-19T16:06:26;7.60;;;2.58;;